createdAt,value
2018-08-06T00:01:11.232Z,62.90
2018-08-06T00:03:39.912Z,63.00
2018-08-06T00:06:08.124Z,63.20
2018-08-06T00:08:36.262Z,63.70
2018-08-06T00:11:04.413Z,64.00
2018-08-06T00:13:32.592Z,64.00
2018-08-06T00:16:00.758Z,64.50
2018-08-06T00:18:28.904Z,64.60
2018-08-06T00:20:57.063Z,64.90
2018-08-06T00:23:25.266Z,65.10
2018-08-06T00:25:53.399Z,65.40
2018-08-06T00:28:21.722Z,65.80
2018-08-06T00:30:49.908Z,66.00
2018-08-06T00:33:18.235Z,66.20
2018-08-06T00:35:46.403Z,66.50
2018-08-06T00:38:14.622Z,66.70
2018-08-06T00:40:42.860Z,67.10
2018-08-06T00:43:11.126Z,67.70
2018-08-06T00:45:39.312Z,67.90
2018-08-06T00:48:07.532Z,68.20
2018-08-06T00:50:35.744Z,68.50
2018-08-06T00:53:03.886Z,68.80
2018-08-06T00:55:32.152Z,69.10
2018-08-06T00:58:00.386Z,69.50
2018-08-06T01:00:28.758Z,69.90
2018-08-06T01:02:56.915Z,70.30
2018-08-06T01:05:25.048Z,70.50
2018-08-06T01:07:53.184Z,71.00
2018-08-06T01:10:21.360Z,71.60
2018-08-06T01:12:49.503Z,72.40
2018-08-06T01:15:18.733Z,72.80
2018-08-06T01:17:46.971Z,72.90
2018-08-06T01:20:15.381Z,73.20
2018-08-06T01:22:44.257Z,73.70
2018-08-06T01:25:12.937Z,74.20
2018-08-06T01:27:41.133Z,74.90
2018-08-06T01:30:11.090Z,75.30
2018-08-06T01:32:39.227Z,75.80
2018-08-06T01:35:08.756Z,76.40
2018-08-06T01:37:36.905Z,77.00
2018-08-06T01:40:06.986Z,77.30
2018-08-06T01:42:36.140Z,77.60
2018-08-06T01:45:04.955Z,77.80
2018-08-06T01:47:33.223Z,78.70
2018-08-06T01:50:01.564Z,78.50
2018-08-06T01:52:29.857Z,78.70
2018-08-06T01:54:58.101Z,79.00
2018-08-06T01:57:26.255Z,80.10
2018-08-06T01:59:54.572Z,79.70
2018-08-06T02:02:22.793Z,80.20
2018-08-06T02:04:51.961Z,80.60
2018-08-06T02:07:20.298Z,80.90
2018-08-06T02:09:48.599Z,81.40
2018-08-06T02:12:16.921Z,81.60
2018-08-06T02:14:45.048Z,81.70
2018-08-06T02:17:13.308Z,81.80
2018-08-06T02:19:41.495Z,81.90
2018-08-06T02:22:09.787Z,82.10
2018-08-06T02:24:38.010Z,82.30
2018-08-06T02:27:06.701Z,82.60
2018-08-06T02:32:02.758Z,83.10
2018-08-06T02:34:31.010Z,83.40
2018-08-06T02:36:59.152Z,83.70
2018-08-06T02:39:27.508Z,83.90
2018-08-06T02:41:55.690Z,84.20
2018-08-06T02:44:24.027Z,84.60
2018-08-06T02:46:52.273Z,84.80
2018-08-06T02:49:20.513Z,85.10
2018-08-06T02:54:16.901Z,85.90
2018-08-06T02:56:45.113Z,85.80
2018-08-06T02:59:13.347Z,86.10
2018-08-06T03:01:41.751Z,86.40
2018-08-06T03:04:09.922Z,86.60
2018-08-06T03:06:38.305Z,86.70
2018-08-06T03:09:09.080Z,86.90
2018-08-06T03:11:37.255Z,87.10
2018-08-06T03:14:05.425Z,87.20
2018-08-06T03:16:33.624Z,87.30
2018-08-06T03:19:02.266Z,87.50
2018-08-06T03:21:30.731Z,87.50
2018-08-06T03:23:58.939Z,87.60
2018-08-06T03:26:27.114Z,87.70
2018-08-06T03:28:55.305Z,87.90
2018-08-06T03:31:23.653Z,88.00
2018-08-06T03:33:51.805Z,88.30
2018-08-06T03:36:20.090Z,88.40
2018-08-06T03:38:48.223Z,89.00
2018-08-06T03:41:16.651Z,88.80
2018-08-06T03:43:44.807Z,89.00
2018-08-06T03:46:13.117Z,89.00
2018-08-06T03:48:41.297Z,89.10
2018-08-06T03:51:09.613Z,89.20
2018-08-06T03:53:37.807Z,89.30
2018-08-06T03:56:06.045Z,89.40
2018-08-06T03:58:34.299Z,89.20
2018-08-06T04:01:02.679Z,89.00
2018-08-06T04:03:30.831Z,88.70
2018-08-06T04:05:59.021Z,88.70
2018-08-06T04:08:27.267Z,88.50
2018-08-06T04:10:55.586Z,88.50
2018-08-06T04:13:23.730Z,88.70
2018-08-06T04:15:51.889Z,88.80
2018-08-06T04:18:20.266Z,88.80
2018-08-06T04:20:48.441Z,88.90
2018-08-06T04:23:16.574Z,88.90
2018-08-06T04:25:44.908Z,89.10
2018-08-06T04:28:13.042Z,89.00
2018-08-06T04:30:41.247Z,89.10
2018-08-06T04:33:09.525Z,89.30
2018-08-06T04:35:37.709Z,88.90
2018-08-06T04:38:05.939Z,89.50
2018-08-06T04:40:34.104Z,89.50
2018-08-06T04:43:02.217Z,89.60
2018-08-06T04:45:30.364Z,89.50
2018-08-06T04:47:58.479Z,89.70
2018-08-06T04:50:26.713Z,89.60
2018-08-06T04:52:54.838Z,89.70
2018-08-06T04:55:22.985Z,89.80
2018-08-06T04:57:51.148Z,89.80
2018-08-06T05:00:19.291Z,89.70
2018-08-06T05:02:47.614Z,89.60
2018-08-06T05:05:15.743Z,88.10
2018-08-06T05:07:43.857Z,84.50
2018-08-06T05:10:12.007Z,80.50
2018-08-06T05:12:40.203Z,77.50
2018-08-06T05:17:36.387Z,73.90
2018-08-06T05:20:04.967Z,72.90
2018-08-06T05:22:34.001Z,72.30
2018-08-06T05:25:02.375Z,72.00
2018-08-06T05:27:30.656Z,71.40
2018-08-06T05:29:58.860Z,71.10
2018-08-06T05:32:27.029Z,70.40
2018-08-06T05:34:55.234Z,69.50
2018-08-06T05:39:51.878Z,68.80
2018-08-06T05:42:20.041Z,69.20
2018-08-06T05:44:48.443Z,68.60
2018-08-06T05:47:16.697Z,68.80
2018-08-06T05:49:44.847Z,68.40
2018-08-06T05:52:13.085Z,67.80
2018-08-06T05:59:38.763Z,68.00
2018-08-06T06:02:06.933Z,68.20
2018-08-06T06:07:03.091Z,69.10
2018-08-06T06:09:31.260Z,69.50
2018-08-06T06:11:59.423Z,69.70
2018-08-06T06:14:27.664Z,69.50
2018-08-06T06:16:55.871Z,68.80
2018-08-06T06:19:24.034Z,68.90
2018-08-06T06:21:52.232Z,69.20
2018-08-06T06:24:20.383Z,69.10
2018-08-06T06:26:48.579Z,69.30
2018-08-06T06:29:17.310Z,69.60
2018-08-06T06:31:45.889Z,69.90
2018-08-06T06:34:14.219Z,69.60
2018-08-06T06:36:42.561Z,69.10
2018-08-06T06:39:11.989Z,69.20
2018-08-06T06:44:10.205Z,69.00
2018-08-06T06:46:39.226Z,68.80
2018-08-06T06:49:07.739Z,68.50
2018-08-06T06:54:03.847Z,69.20
2018-08-06T06:56:31.991Z,69.00
2018-08-06T06:59:00.207Z,68.80
2018-08-06T07:01:28.372Z,67.80
2018-08-06T07:03:56.733Z,67.80
2018-08-06T07:06:25.081Z,67.60
2018-08-06T07:08:53.302Z,67.20
2018-08-06T07:11:21.494Z,66.40
2018-08-06T07:13:49.775Z,66.50
2018-08-06T07:16:17.930Z,67.00
2018-08-06T07:18:46.204Z,66.20
2018-08-06T07:21:14.453Z,66.60
2018-08-06T07:23:42.664Z,67.10
2018-08-06T07:26:10.827Z,67.10
2018-08-06T07:28:39.049Z,66.20
2018-08-06T07:31:07.249Z,66.30
2018-08-06T07:33:35.504Z,65.30
2018-08-06T07:36:03.679Z,65.50
2018-08-06T07:38:31.851Z,65.40
2018-08-06T07:41:00.191Z,64.60
2018-08-06T07:43:28.417Z,64.00
2018-08-06T07:45:56.812Z,65.20
2018-08-06T07:48:24.993Z,65.70
2018-08-06T07:50:53.918Z,66.20
2018-08-06T07:53:22.630Z,65.20
2018-08-06T07:58:19.130Z,65.20
2018-08-06T08:00:47.431Z,66.40
2018-08-06T08:03:15.588Z,65.00
2018-08-06T08:05:43.791Z,66.10
2018-08-06T08:08:12.972Z,66.30
2018-08-06T08:10:41.151Z,66.00
2018-08-06T08:13:09.308Z,66.30
2018-08-06T08:15:37.508Z,66.50
2018-08-06T08:18:05.715Z,66.00
2018-08-06T08:20:33.881Z,65.60
2018-08-06T08:23:01.989Z,64.60
2018-08-06T08:25:30.202Z,64.80
2018-08-06T08:27:58.662Z,64.90
2018-08-06T08:30:26.851Z,64.50
2018-08-06T08:32:54.997Z,64.40
2018-08-06T08:35:29.021Z,64.50
2018-08-06T08:37:57.173Z,64.00
2018-08-06T08:40:25.343Z,64.10
2018-08-06T08:42:53.440Z,64.70
2018-08-06T08:45:21.570Z,64.20
2018-08-06T08:47:49.695Z,64.10
2018-08-06T08:50:19.306Z,64.20
2018-08-06T08:52:47.417Z,64.50
2018-08-06T08:55:16.858Z,65.00
2018-08-06T08:57:45.095Z,64.90
2018-08-06T09:00:21.925Z,64.60
2018-08-06T09:02:50.910Z,64.30
2018-08-06T09:05:19.598Z,64.50
2018-08-06T09:07:48.504Z,64.20
2018-08-06T09:10:17.517Z,64.10
2018-08-06T09:12:46.045Z,64.20
2018-08-06T09:15:16.980Z,63.00
2018-08-06T09:17:45.170Z,63.50
2018-08-06T09:20:13.432Z,63.60
2018-08-06T09:22:42.605Z,63.50
2018-08-06T09:25:11.845Z,62.40
2018-08-06T09:30:12.684Z,61.80
2018-08-06T09:32:41.739Z,61.60
2018-08-06T09:35:09.965Z,62.60
2018-08-06T09:40:09.673Z,62.20
2018-08-06T09:42:38.359Z,61.10
2018-08-06T09:45:07.362Z,60.90
2018-08-06T09:47:35.633Z,60.70
2018-08-06T09:50:04.589Z,59.70
2018-08-06T09:52:32.803Z,58.40
2018-08-06T09:55:01.078Z,59.50
2018-08-06T09:57:29.359Z,59.90
2018-08-06T09:59:57.731Z,59.50
2018-08-06T10:02:25.941Z,59.00
2018-08-06T10:04:54.051Z,58.80
2018-08-06T10:07:22.154Z,58.80
2018-08-06T10:09:50.327Z,58.50
2018-08-06T10:12:18.563Z,57.90
2018-08-06T10:14:46.678Z,56.90
2018-08-06T10:17:14.836Z,56.40
2018-08-06T10:19:43.095Z,56.60
2018-08-06T10:22:11.737Z,56.20
2018-08-06T10:24:39.895Z,56.50
2018-08-06T10:29:36.072Z,55.60
2018-08-06T10:32:04.286Z,55.40
2018-08-06T10:34:32.468Z,54.60
2018-08-06T10:37:00.716Z,54.50
2018-08-06T10:44:24.783Z,55.00
2018-08-06T10:46:53.029Z,55.10
2018-08-06T10:49:21.157Z,54.10
2018-08-06T10:51:49.491Z,53.50
2018-08-06T10:54:17.878Z,51.70
2018-08-06T10:56:47.169Z,51.40
2018-08-06T10:59:15.330Z,51.90
2018-08-06T11:04:11.396Z,51.20
2018-08-06T11:06:39.596Z,50.90
2018-08-06T11:09:08.205Z,50.10
2018-08-06T11:11:36.378Z,50.80
2018-08-06T11:14:04.766Z,50.40
2018-08-06T11:16:32.943Z,50.70
2018-08-06T11:19:01.106Z,50.60
2018-08-06T11:21:29.309Z,50.00
2018-08-06T11:23:57.538Z,49.60
2018-08-06T11:26:25.977Z,49.60
2018-08-06T11:28:54.163Z,48.20
2018-08-06T11:31:22.397Z,47.10
2018-08-06T11:33:50.717Z,46.50
2018-08-06T11:36:18.930Z,46.60
2018-08-06T11:38:47.047Z,46.60
2018-08-06T11:41:15.234Z,45.10
2018-08-06T11:43:43.446Z,44.60
2018-08-06T11:46:11.656Z,45.10
2018-08-06T11:48:39.985Z,44.80
2018-08-06T11:51:09.223Z,44.60
2018-08-06T11:53:37.533Z,44.90
2018-08-06T11:56:05.965Z,44.60
2018-08-06T11:58:34.199Z,45.20
2018-08-06T12:01:02.333Z,45.00
2018-08-06T12:03:30.631Z,44.80
2018-08-06T12:05:58.820Z,44.60
2018-08-06T12:08:26.994Z,44.30
2018-08-06T12:10:55.366Z,42.60
2018-08-06T12:13:23.577Z,42.40
2018-08-06T12:15:51.783Z,43.20
2018-08-06T12:18:20.017Z,42.50
2018-08-06T12:20:48.365Z,42.40
2018-08-06T12:23:17.423Z,42.00
2018-08-06T12:25:45.600Z,42.10
2018-08-06T12:28:13.777Z,42.20
2018-08-06T12:30:41.903Z,42.50
2018-08-06T12:33:10.075Z,42.80
2018-08-06T12:35:38.188Z,43.10
2018-08-06T12:40:34.289Z,44.20
2018-08-06T12:43:02.593Z,43.50
2018-08-06T12:45:30.763Z,42.90
2018-08-06T12:47:58.868Z,43.30
2018-08-06T12:50:27.078Z,42.90
2018-08-06T12:52:55.224Z,42.80
2018-08-06T12:55:23.378Z,42.00
2018-08-06T12:57:51.608Z,42.20
2018-08-06T13:00:22.040Z,40.90
2018-08-06T13:02:50.997Z,41.00
2018-08-06T13:05:19.932Z,40.40
2018-08-06T13:07:48.208Z,40.90
2018-08-06T13:10:16.480Z,41.30
2018-08-06T13:15:13.851Z,40.00
2018-08-06T13:17:42.034Z,39.30
2018-08-06T13:20:10.310Z,39.70
2018-08-06T13:22:38.460Z,40.10
2018-08-06T13:25:07.981Z,39.60
2018-08-06T13:27:36.187Z,39.90
2018-08-06T13:32:41.215Z,40.70
2018-08-06T13:35:09.408Z,40.30
2018-08-06T13:37:37.619Z,40.70
2018-08-06T13:40:06.840Z,40.70
2018-08-06T13:42:35.010Z,40.50
2018-08-06T13:45:04.017Z,39.90
2018-08-06T13:47:32.202Z,40.20
2018-08-06T13:50:00.323Z,40.50
2018-08-06T13:52:28.452Z,40.30
2018-08-06T13:54:56.565Z,40.70
2018-08-06T13:57:24.797Z,41.00
2018-08-06T13:59:52.958Z,41.00
2018-08-06T14:02:21.165Z,40.70
2018-08-06T14:04:49.342Z,40.60
2018-08-06T14:07:17.750Z,40.50
2018-08-06T14:09:45.981Z,40.20
2018-08-06T14:12:14.122Z,40.20
2018-08-06T14:14:42.274Z,40.40
2018-08-06T14:17:10.564Z,40.90
2018-08-06T14:19:38.798Z,41.10
2018-08-06T14:22:07.063Z,41.40
2018-08-06T14:24:35.276Z,41.20
2018-08-06T14:27:03.452Z,41.10
2018-08-06T14:29:31.714Z,40.90
2018-08-06T14:31:59.875Z,41.20
2018-08-06T14:34:28.381Z,40.90
2018-08-06T14:36:56.523Z,41.00
2018-08-06T14:39:24.709Z,40.70
2018-08-06T14:41:52.835Z,41.00
2018-08-06T14:44:20.992Z,41.50
2018-08-06T14:46:49.168Z,41.30
2018-08-06T14:49:17.348Z,40.80
2018-08-06T14:51:45.581Z,40.70
2018-08-06T14:54:13.756Z,40.70
2018-08-06T14:56:41.851Z,40.70
2018-08-06T14:59:10.023Z,40.70
2018-08-06T15:01:38.138Z,40.50
2018-08-06T15:04:08.221Z,40.60
2018-08-06T15:06:36.379Z,40.90
2018-08-06T15:09:07.660Z,40.80
2018-08-06T15:14:06.265Z,41.40
2018-08-06T15:19:02.349Z,40.90
2018-08-06T15:21:30.514Z,41.10
2018-08-06T15:23:58.669Z,41.10
2018-08-06T15:26:26.981Z,40.70
2018-08-06T15:28:55.123Z,40.90
2018-08-06T15:31:23.404Z,41.00
2018-08-06T15:33:51.973Z,40.80
2018-08-06T15:36:20.185Z,40.90
2018-08-06T15:41:16.272Z,40.70
2018-08-06T15:43:44.363Z,41.00
2018-08-06T15:46:12.736Z,40.70
2018-08-06T15:48:40.912Z,41.20
2018-08-06T15:51:09.160Z,41.00
2018-08-06T15:53:37.301Z,41.00
2018-08-06T15:56:05.845Z,40.80
2018-08-06T15:58:34.017Z,40.40
2018-08-06T16:01:02.146Z,40.60
2018-08-06T16:03:30.412Z,40.50
2018-08-06T16:05:58.619Z,41.10
2018-08-06T16:08:27.097Z,41.10
2018-08-06T16:10:55.351Z,40.60
2018-08-06T16:13:23.612Z,39.90
2018-08-06T16:15:51.714Z,39.70
2018-08-06T16:18:20.937Z,39.80
2018-08-06T16:20:49.175Z,39.70
2018-08-06T16:23:17.347Z,39.90
2018-08-06T16:25:45.530Z,39.50
2018-08-06T16:28:13.733Z,39.40
2018-08-06T16:30:41.978Z,39.70
2018-08-06T16:33:10.217Z,39.50
2018-08-06T16:35:38.543Z,39.30
2018-08-06T16:38:06.783Z,39.80
2018-08-06T16:40:35.112Z,39.50
2018-08-06T16:43:03.267Z,39.40
2018-08-06T16:45:31.509Z,39.30
2018-08-06T16:47:59.737Z,39.40
2018-08-06T16:50:27.898Z,39.20
2018-08-06T16:55:24.321Z,39.90
2018-08-06T16:57:52.512Z,40.00
2018-08-06T17:00:22.067Z,40.00
2018-08-06T17:02:50.988Z,40.00
2018-08-06T17:05:19.111Z,40.00
2018-08-06T17:07:48.140Z,40.00
2018-08-06T17:10:17.728Z,40.00
2018-08-06T17:12:47.701Z,40.20
2018-08-06T17:15:17.290Z,40.30
2018-08-06T17:17:46.148Z,40.60
2018-08-06T17:20:16.516Z,40.60
2018-08-06T17:22:45.997Z,40.50
2018-08-06T17:25:14.401Z,40.50
2018-08-06T17:27:43.082Z,40.60
2018-08-06T17:30:12.192Z,40.90
2018-08-06T17:32:40.332Z,41.00
2018-08-06T17:35:10.892Z,41.10
2018-08-06T17:37:39.096Z,41.30
2018-08-06T17:40:17.500Z,41.30
2018-08-06T17:42:45.647Z,41.40
2018-08-06T17:45:18.629Z,41.40
2018-08-06T17:50:16.397Z,41.50
2018-08-06T17:52:45.714Z,41.60
2018-08-06T17:55:14.767Z,41.80
2018-08-06T17:57:42.975Z,42.30
2018-08-06T18:00:11.755Z,41.90
2018-08-06T18:02:39.962Z,41.90
2018-08-06T18:05:10.056Z,42.40
2018-08-06T18:07:39.345Z,42.60
2018-08-06T18:10:09.026Z,42.60
2018-08-06T18:12:37.208Z,42.80
2018-08-06T18:15:05.532Z,42.80
2018-08-06T18:17:33.700Z,42.80
2018-08-06T18:20:01.957Z,42.80
2018-08-06T18:22:30.236Z,42.90
2018-08-06T18:24:58.410Z,42.90
2018-08-06T18:27:26.616Z,42.90
2018-08-06T18:29:54.680Z,43.00
2018-08-06T18:32:22.784Z,43.10
2018-08-06T18:34:51.058Z,43.50
2018-08-06T18:37:19.412Z,43.70
2018-08-06T18:39:47.586Z,43.90
2018-08-06T18:42:15.722Z,44.50
2018-08-06T18:44:43.882Z,44.30
2018-08-06T18:47:12.116Z,44.60
2018-08-06T18:49:40.368Z,44.90
2018-08-06T18:52:08.560Z,45.00
2018-08-06T18:54:36.968Z,45.00
2018-08-06T18:57:05.145Z,45.10
2018-08-06T18:59:33.351Z,45.60
2018-08-06T19:02:01.706Z,45.90
2018-08-06T19:04:29.844Z,46.10
2018-08-06T19:06:58.032Z,46.50
2018-08-06T19:09:26.196Z,47.30
2018-08-06T19:11:58.630Z,47.10
2018-08-06T19:16:54.954Z,47.50
2018-08-06T19:19:24.883Z,47.70
2018-08-06T19:21:54.194Z,47.90
2018-08-06T19:24:27.809Z,48.30
2018-08-06T19:26:56.015Z,48.60
2018-08-06T19:29:24.454Z,48.80
2018-08-06T19:31:52.708Z,48.90
2018-08-06T19:34:21.172Z,49.10
2018-08-06T19:36:54.764Z,49.40
2018-08-06T19:39:22.965Z,49.60
2018-08-06T19:41:51.250Z,49.80
2018-08-06T19:46:47.504Z,50.20
2018-08-06T19:51:49.253Z,50.30
2018-08-06T19:54:17.456Z,50.40
2018-08-06T19:56:45.648Z,50.50
2018-08-06T19:59:13.876Z,50.30
2018-08-06T20:01:42.088Z,50.40
2018-08-06T20:04:10.234Z,50.60
2018-08-06T20:06:38.597Z,50.70
2018-08-06T20:09:10.824Z,51.10
2018-08-06T20:11:39.329Z,51.30
2018-08-06T20:14:07.451Z,51.50
2018-08-06T20:16:35.607Z,51.70
2018-08-06T20:19:03.782Z,51.80
2018-08-06T20:21:32.914Z,51.70
2018-08-06T20:24:01.086Z,51.80
2018-08-06T20:26:29.286Z,51.90
2018-08-06T20:28:57.471Z,51.60
2018-08-06T20:31:25.805Z,51.70
2018-08-06T20:33:54.190Z,51.70
2018-08-06T20:36:22.374Z,51.70
2018-08-06T20:38:50.757Z,52.00
2018-08-06T20:41:20.191Z,51.80
2018-08-06T20:43:48.433Z,52.00
2018-08-06T20:46:16.801Z,52.10
2018-08-06T20:48:45.034Z,52.30
2018-08-06T20:51:13.220Z,52.20
2018-08-06T20:53:41.428Z,52.20
2018-08-06T20:58:37.625Z,52.20
2018-08-06T21:01:05.861Z,52.30
2018-08-06T21:03:34.142Z,52.30
2018-08-06T21:06:03.341Z,52.30
2018-08-06T21:10:59.680Z,52.40
2018-08-06T21:13:28.014Z,52.40
2018-08-06T21:15:56.262Z,52.50
2018-08-06T21:18:24.532Z,52.70
2018-08-06T21:20:52.729Z,53.10
2018-08-06T21:23:21.107Z,53.40
2018-08-06T21:25:49.320Z,53.60
2018-08-06T21:28:17.490Z,53.90
2018-08-06T21:33:13.765Z,54.10
2018-08-06T21:35:41.884Z,54.10
2018-08-06T21:38:10.070Z,54.20
2018-08-06T21:40:38.254Z,54.60
2018-08-06T21:43:06.774Z,53.90
2018-08-06T21:45:35.130Z,54.30
2018-08-06T21:48:03.436Z,54.60
2018-08-06T21:50:31.603Z,54.80
2018-08-06T21:55:27.663Z,55.20
2018-08-06T21:57:55.842Z,55.20
2018-08-06T22:00:34.244Z,55.30
2018-08-06T22:03:03.695Z,55.50
2018-08-06T22:05:32.050Z,55.60
2018-08-06T22:08:00.301Z,55.60
2018-08-06T22:10:28.460Z,55.90
2018-08-06T22:12:56.778Z,55.70
2018-08-06T22:15:24.910Z,56.20
2018-08-06T22:17:53.288Z,55.80
2018-08-06T22:20:21.523Z,56.40
2018-08-06T22:22:49.708Z,56.10
2018-08-06T22:25:17.840Z,56.30
2018-08-06T22:27:45.989Z,56.30
2018-08-06T22:30:14.337Z,56.60
2018-08-06T22:32:42.504Z,56.50
2018-08-06T22:35:12.336Z,56.60
2018-08-06T22:37:41.378Z,56.70
2018-08-06T22:40:11.210Z,56.90
2018-08-06T22:42:39.941Z,57.00
2018-08-06T22:45:09.645Z,57.30
2018-08-06T22:47:38.005Z,57.50
2018-08-06T22:50:07.935Z,57.60
2018-08-06T22:52:36.051Z,57.80
2018-08-06T22:55:04.673Z,57.90
2018-08-06T22:57:32.978Z,58.10
2018-08-06T23:00:01.279Z,58.30
2018-08-06T23:02:29.530Z,58.50
2018-08-06T23:04:57.792Z,58.60
2018-08-06T23:07:26.131Z,58.70
2018-08-06T23:09:54.410Z,59.00
2018-08-06T23:12:22.686Z,59.10
2018-08-06T23:14:50.888Z,59.30
2018-08-06T23:17:19.129Z,59.50
2018-08-06T23:19:47.317Z,59.60
2018-08-06T23:22:15.812Z,59.70
2018-08-06T23:24:44.136Z,59.80
2018-08-06T23:27:12.469Z,59.90
2018-08-06T23:29:40.983Z,60.00
2018-08-06T23:32:09.224Z,60.30
2018-08-06T23:34:37.635Z,60.70
2018-08-06T23:37:06.126Z,60.90
2018-08-06T23:39:34.332Z,61.40
2018-08-06T23:42:03.325Z,61.80
2018-08-06T23:44:31.439Z,62.20
2018-08-06T23:46:59.608Z,62.50
2018-08-06T23:51:55.790Z,63.10
2018-08-06T23:54:23.910Z,63.20
2018-08-06T23:56:52.063Z,63.50
2018-08-06T23:59:20.287Z,63.70
